Time;durP1;ratioP1;P1;durP2;ratioP2;P2;SDS_P1;SDS_P2;PMS_P1;PMS_P2;Temp;Humidity;BMP_temperature;BMP_pressure;BME280_temperature;BME280_humidity;BME280_pressure;Samples;Min_cycle;Max_cycle;Signal;HPM_P1;HPM_P2
2022/08/03 00:00:56;;;;;;;4.00;3.70;;;21.60;97.00;;;;;;6081703;23;20799;-69
2022/08/03 00:03:25;;;;;;;4.70;4.23;;;21.50;97.80;;;;;;6072991;23;20454;-67
2022/08/03 00:05:52;;;;;;;4.67;4.20;;;21.40;98.50;;;;;;6084545;23;20775;-66
2022/08/03 00:08:19;;;;;;;5.53;4.13;;;21.40;99.00;;;;;;6072223;23;20491;-67
2022/08/03 00:10:46;;;;;;;4.40;4.10;;;21.30;99.60;;;;;;6083574;23;20540;-67
2022/08/03 00:13:13;;;;;;;4.00;3.70;;;21.30;99.90;;;;;;6080001;23;20470;-67
2022/08/03 00:15:41;;;;;;;3.93;3.63;;;21.20;99.90;;;;;;6085449;23;20957;-67
2022/08/03 00:18:09;;;;;;;5.87;4.27;;;21.20;99.90;;;;;;6085146;23;20455;-67
2022/08/03 00:20:37;;;;;;;4.10;3.80;;;21.20;99.90;;;;;;6090092;23;20518;-67
2022/08/03 00:23:05;;;;;;;4.30;4.00;;;21.10;99.90;;;;;;6077762;23;20437;-67
2022/08/03 00:25:33;;;;;;;4.20;3.90;;;21.10;99.90;;;;;;6077952;23;20468;-67
2022/08/03 00:28:00;;;;;;;5.03;4.50;;;21.10;99.90;;;;;;6074146;23;20477;-67
2022/08/03 00:30:28;;;;;;;5.17;4.77;;;21.20;99.90;;;;;;6089313;23;20585;-67
2022/08/03 00:32:56;;;;;;;4.33;4.03;;;21.20;99.90;;;;;;6077427;23;20839;-67
2022/08/03 00:35:23;;;;;;;5.33;4.93;;;21.20;99.90;;;;;;6088488;23;20479;-66
2022/08/03 00:37:51;;;;;;;5.07;4.67;;;21.30;99.90;;;;;;6078899;23;20864;-66
2022/08/03 00:40:19;;;;;;;5.23;4.73;;;21.30;99.90;;;;;;6083695;23;20981;-67
2022/08/03 00:42:49;;;;;;;5.37;4.87;;;21.30;99.90;;;;;;6078003;23;20486;-67
2022/08/03 00:45:17;;;;;;;4.60;4.30;;;21.30;99.90;;;;;;6086075;23;20511;-67
2022/08/03 00:47:44;;;;;;;4.20;3.90;;;21.30;99.90;;;;;;6069657;23;20473;-67
2022/08/03 00:50:11;;;;;;;4.40;4.10;;;21.30;99.90;;;;;;6078427;23;20480;-67
2022/08/03 00:52:39;;;;;;;5.27;4.77;;;21.20;99.90;;;;;;6083563;23;20440;-67
2022/08/03 00:55:09;;;;;;;4.70;4.30;;;21.20;99.90;;;;;;6087987;23;20473;-67
2022/08/03 00:57:37;;;;;;;4.57;4.10;;;21.10;99.90;;;;;;6088374;23;20927;-67
2022/08/03 01:00:08;;;;;;;4.33;3.93;;;21.00;99.90;;;;;;6074873;23;20541;-67
2022/08/03 01:02:35;;;;;;;4.10;3.80;;;20.90;99.90;;;;;;6078338;23;20455;-66
2022/08/03 01:05:02;;;;;;;4.43;4.03;;;20.80;99.90;;;;;;6073629;23;20444;-66
2022/08/03 01:07:40;;;;;;;4.10;3.80;;;20.60;99.90;;;;;;6081467;23;20490;-67
2022/08/03 01:10:18;;;;;;;5.20;4.80;;;20.50;99.90;;;;;;6073958;23;20501;-66
2022/08/03 01:12:53;;;;;;;4.53;4.13;;;20.40;99.90;;;;;;6067095;23;20464;-66
2022/08/03 01:15:28;;;;;;;4.63;4.33;;;20.30;99.90;;;;;;6074370;23;21192;-66
2022/08/03 01:17:59;;;;;;;4.37;4.07;;;20.20;99.90;;;;;;6076255;23;20466;-67
2022/08/03 01:20:33;;;;;;;4.90;4.50;;;20.20;99.90;;;;;;6085356;23;20526;-66
2022/08/03 01:23:27;;;;;;;4.40;4.10;;;20.10;99.90;;;;;;6084447;23;20471;-66
2022/08/03 01:26:12;;;;;;;4.47;4.07;;;20.10;99.90;;;;;;6074720;23;20957;-67
2022/08/03 01:28:56;;;;;;;4.83;4.40;;;20.00;99.90;;;;;;6086401;23;20516;-66
2022/08/03 01:31:29;;;;;;;5.20;4.70;;;19.90;99.90;;;;;;6084120;23;20450;-67
2022/08/03 01:34:00;;;;;;;5.23;4.83;;;19.90;99.90;;;;;;6078057;23;20820;-67
2022/08/03 01:36:33;;;;;;;5.60;5.20;;;19.90;99.90;;;;;;6077857;23;20442;-67
2022/08/03 01:39:08;;;;;;;5.87;5.47;;;19.80;99.90;;;;;;6079310;23;21093;-67
2022/08/03 01:41:39;;;;;;;5.47;5.07;;;19.80;99.90;;;;;;6076354;23;20903;-67
2022/08/03 01:44:10;;;;;;;5.73;5.23;;;19.90;99.90;;;;;;6088919;23;20473;-67
2022/08/03 01:46:40;;;;;;;6.70;5.87;;;19.90;99.90;;;;;;6081874;23;20438;-67
2022/08/03 01:49:10;;;;;;;6.13;5.63;;;19.90;99.90;;;;;;6074114;23;20875;-67
2022/08/03 01:51:42;;;;;;;5.43;5.03;;;19.90;99.90;;;;;;6075246;23;20541;-67
2022/08/03 01:54:10;;;;;;;5.70;5.20;;;19.90;99.90;;;;;;6080904;23;20458;-66
2022/08/03 01:56:40;;;;;;;5.33;4.80;;;19.90;99.90;;;;;;6082913;23;20444;-67
2022/08/03 01:59:08;;;;;;;5.10;4.70;;;19.90;99.90;;;;;;6079898;23;20455;-67
2022/08/03 02:01:37;;;;;;;4.40;4.10;;;19.80;99.90;;;;;;6086880;23;20439;-67
2022/08/03 02:04:07;;;;;;;4.77;4.47;;;19.80;99.90;;;;;;6074136;23;20488;-67
2022/08/03 02:06:36;;;;;;;4.30;3.80;;;19.70;99.90;;;;;;6072291;23;20954;-67
2022/08/03 02:09:05;;;;;;;4.80;4.40;;;19.60;99.90;;;;;;6075200;23;20467;-67
2022/08/03 02:11:34;;;;;;;4.93;4.53;;;19.60;99.90;;;;;;6067490;23;20470;-67
2022/08/03 02:14:05;;;;;;;5.43;5.03;;;19.50;99.90;;;;;;6070403;23;20549;-67
2022/08/03 02:16:33;;;;;;;4.97;4.57;;;19.50;99.90;;;;;;6072649;23;20466;-67
2022/08/03 02:19:04;;;;;;;5.60;5.20;;;19.50;99.90;;;;;;6083444;23;20455;-67
2022/08/03 02:21:35;;;;;;;4.73;4.40;;;19.50;99.90;;;;;;6078439;23;20442;-67
2022/08/03 02:24:04;;;;;;;4.80;4.50;;;19.50;99.90;;;;;;6078393;23;20453;-67
2022/08/03 02:26:32;;;;;;;5.33;4.90;;;19.40;99.90;;;;;;6085864;23;20583;-67
2022/08/03 02:29:11;;;;;;;4.90;4.50;;;19.40;99.90;;;;;;6085830;23;20929;-67
2022/08/03 02:31:39;;;;;;;5.43;4.93;;;19.40;99.90;;;;;;6076453;23;20963;-67
2022/08/03 02:34:11;;;;;;;5.20;4.80;;;19.50;99.90;;;;;;6079192;23;20466;-67
2022/08/03 02:36:43;;;;;;;4.70;4.10;;;19.50;99.90;;;;;;6075996;23;20492;-67
2022/08/03 02:39:13;;;;;;;4.60;4.30;;;19.50;99.90;;;;;;6083927;23;20446;-67
2022/08/03 02:41:45;;;;;;;5.23;4.83;;;19.60;99.90;;;;;;6085973;23;20964;-66
2022/08/03 02:44:13;;;;;;;5.07;4.67;;;19.40;99.90;;;;;;6080674;23;20458;-67
2022/08/03 02:46:45;;;;;;;5.37;4.97;;;19.40;99.90;;;;;;6084310;23;20466;-67
2022/08/03 02:49:15;;;;;;;5.37;4.97;;;19.40;99.90;;;;;;6072700;23;20964;-67
2022/08/03 02:51:44;;;;;;;4.83;4.47;;;19.40;99.90;;;;;;6085894;23;20446;-67
2022/08/03 02:54:15;;;;;;;7.60;4.60;;;19.30;99.90;;;;;;6079039;23;20459;-66
2022/08/03 02:56:43;;;;;;;4.90;4.60;;;19.30;99.90;;;;;;6088896;23;20952;-66
2022/08/03 02:59:12;;;;;;;5.23;4.83;;;19.20;99.90;;;;;;6070178;23;20441;-66
2022/08/03 03:01:40;;;;;;;5.10;4.70;;;19.10;99.90;;;;;;6080942;23;20452;-66
2022/08/03 03:04:07;;;;;;;5.20;4.80;;;19.00;99.90;;;;;;6082032;23;20445;-68
2022/08/03 03:06:36;;;;;;;4.83;4.53;;;19.00;99.90;;;;;;6087572;23;20561;-67
2022/08/03 03:09:05;;;;;;;4.70;4.37;;;18.90;99.90;;;;;;6078715;23;20513;-67
2022/08/03 03:11:32;;;;;;;5.13;4.73;;;19.10;99.90;;;;;;6087640;23;20521;-67
2022/08/03 03:14:00;;;;;;;5.30;4.90;;;18.90;99.90;;;;;;6079009;23;20517;-67
2022/08/03 03:16:29;;;;;;;5.40;4.90;;;18.80;99.90;;;;;;6083288;23;20541;-67
2022/08/03 03:18:58;;;;;;;5.53;5.00;;;18.80;99.90;;;;;;6068800;23;20438;-67
2022/08/03 03:21:26;;;;;;;4.67;4.37;;;18.80;99.90;;;;;;6081834;23;20436;-66
2022/08/03 03:23:54;;;;;;;5.37;4.90;;;18.80;99.90;;;;;;6079104;23;20466;-67
2022/08/03 03:26:23;;;;;;;6.10;5.70;;;18.70;99.90;;;;;;6083216;23;20493;-67
2022/08/03 03:28:50;;;;;;;5.30;4.90;;;18.80;99.90;;;;;;6079343;23;20442;-67
2022/08/03 03:31:17;;;;;;;5.80;5.40;;;18.70;99.90;;;;;;6081476;23;20449;-67
2022/08/03 03:33:44;;;;;;;6.10;5.70;;;18.70;99.90;;;;;;6069762;23;20519;-67
2022/08/03 03:36:11;;;;;;;6.30;5.80;;;18.70;99.90;;;;;;6083679;23;20553;-66
2022/08/03 03:38:38;;;;;;;6.57;6.07;;;18.60;99.90;;;;;;6079743;23;20439;-67
2022/08/03 03:41:06;;;;;;;5.77;5.27;;;18.60;99.90;;;;;;6084479;23;20447;-67
2022/08/03 03:43:34;;;;;;;6.77;6.13;;;18.60;99.90;;;;;;6075160;23;20470;-66
2022/08/03 03:46:01;;;;;;;6.53;6.03;;;18.60;99.90;;;;;;6073852;23;21614;-66
2022/08/03 03:48:29;;;;;;;6.30;5.70;;;18.60;99.90;;;;;;6079681;23;20450;-67
2022/08/03 03:50:57;;;;;;;6.97;6.47;;;18.60;99.90;;;;;;6083783;23;20461;-66
2022/08/03 03:53:24;;;;;;;6.33;5.80;;;18.60;99.90;;;;;;6073951;23;20614;-67
2022/08/03 03:55:53;;;;;;;6.83;6.23;;;18.60;99.90;;;;;;6078328;23;20481;-67
2022/08/03 03:58:20;;;;;;;7.10;6.50;;;18.60;99.90;;;;;;6073483;23;20492;-67
2022/08/03 04:00:49;;;;;;;6.63;6.13;;;18.50;99.90;;;;;;6077665;23;20526;-66
2022/08/03 04:03:16;;;;;;;5.97;5.57;;;18.50;99.90;;;;;;6082927;23;20462;-66
2022/08/03 04:11:18;;;;;;;7.90;7.23;;;18.40;99.90;;;;;;6082201;23;21083;-67
2022/08/03 04:13:56;;;;;;;8.10;7.40;;;18.40;99.90;;;;;;6083782;23;20487;-67
2022/08/03 04:16:28;;;;;;;7.70;7.10;;;18.40;99.90;;;;;;6085916;23;21913;-67
2022/08/03 04:19:00;;;;;;;7.67;7.07;;;18.40;99.90;;;;;;6081340;23;21000;-66
2022/08/03 04:21:30;;;;;;;7.90;7.13;;;18.40;99.90;;;;;;6078996;23;21053;-66
2022/08/03 04:24:01;;;;;;;7.57;6.97;;;18.40;99.90;;;;;;6075379;23;20530;-66
2022/08/03 04:26:32;;;;;;;7.80;7.10;;;18.40;99.90;;;;;;6078115;23;20447;-66
2022/08/03 04:29:00;;;;;;;7.80;7.20;;;18.40;99.90;;;;;;6078822;23;20470;-66
2022/08/03 04:31:30;;;;;;;7.17;6.67;;;18.40;99.90;;;;;;6078289;23;20851;-66
2022/08/03 04:33:57;;;;;;;7.00;6.40;;;18.40;99.90;;;;;;6070012;23;20464;-66
2022/08/03 04:36:27;;;;;;;7.90;7.10;;;18.40;99.90;;;;;;6071640;23;20817;-66
2022/08/03 04:39:00;;;;;;;7.53;6.80;;;18.40;99.90;;;;;;6080452;23;20453;-66
2022/08/03 04:41:28;;;;;;;8.13;7.43;;;18.40;99.90;;;;;;6084400;23;20717;-67
2022/08/03 04:43:59;;;;;;;6.57;6.03;;;18.40;99.90;;;;;;6069839;23;20434;-67
2022/08/03 04:46:31;;;;;;;7.10;6.50;;;18.40;99.90;;;;;;6083919;23;20453;-67
2022/08/03 04:48:59;;;;;;;7.23;6.60;;;18.40;99.90;;;;;;6071841;23;20481;-66
2022/08/03 04:51:26;;;;;;;6.80;6.30;;;18.40;99.90;;;;;;6080363;23;20496;-66
2022/08/03 04:53:53;;;;;;;6.40;5.90;;;18.40;99.90;;;;;;6075470;23;20976;-66
2022/08/03 04:56:20;;;;;;;6.23;5.77;;;18.50;99.90;;;;;;6082340;23;20552;-66
2022/08/03 04:58:47;;;;;;;6.63;6.17;;;18.50;99.90;;;;;;6076143;23;20442;-67
2022/08/03 05:01:15;;;;;;;7.23;6.53;;;18.40;99.90;;;;;;6069111;23;20499;-66
2022/08/03 05:03:44;;;;;;;7.30;6.70;;;18.50;99.90;;;;;;6081551;23;20513;-66
2022/08/03 05:06:11;;;;;;;8.10;6.90;;;18.50;99.90;;;;;;6078852;23;20442;-66
2022/08/03 05:08:38;;;;;;;6.83;6.33;;;18.50;99.90;;;;;;6069966;23;20514;-66
2022/08/03 05:11:05;;;;;;;7.40;6.80;;;18.50;99.90;;;;;;6077033;23;21001;-66
2022/08/03 05:13:33;;;;;;;7.30;6.70;;;18.60;99.90;;;;;;6076617;23;20459;-67
2022/08/03 05:16:00;;;;;;;6.93;6.43;;;18.50;99.90;;;;;;6081509;23;20470;-67
2022/08/03 05:18:27;;;;;;;7.00;6.50;;;18.60;99.90;;;;;;6066003;23;20505;-67
2022/08/03 05:20:57;;;;;;;7.87;7.03;;;18.60;99.90;;;;;;6070070;23;20506;-67
2022/08/03 05:23:24;;;;;;;6.90;6.40;;;18.90;99.90;;;;;;6081610;23;20458;-67
2022/08/03 05:25:51;;;;;;;6.80;6.20;;;18.70;99.90;;;;;;6067600;23;20550;-67
2022/08/03 05:28:18;;;;;;;6.93;6.23;;;18.80;99.90;;;;;;6063535;23;20783;-67
2022/08/03 05:30:45;;;;;;;7.20;6.50;;;18.90;99.90;;;;;;6072213;23;20466;-66
2022/08/03 05:33:12;;;;;;;6.90;6.30;;;19.00;99.90;;;;;;6073722;23;20492;-67
2022/08/03 05:35:39;;;;;;;6.77;6.10;;;19.10;99.90;;;;;;6071079;23;20486;-67
2022/08/03 05:38:08;;;;;;;8.10;6.60;;;19.10;99.90;;;;;;6075345;23;21014;-69
2022/08/03 05:40:35;;;;;;;7.53;6.83;;;19.30;99.90;;;;;;6072258;23;20527;-66
2022/08/03 05:43:02;;;;;;;7.73;7.00;;;19.30;99.90;;;;;;6075075;23;20454;-67
2022/08/03 05:45:29;;;;;;;7.20;6.60;;;19.40;99.90;;;;;;6076772;23;20798;-67
2022/08/03 05:47:56;;;;;;;6.93;6.43;;;19.60;99.90;;;;;;6078357;23;20438;-67
2022/08/03 05:50:23;;;;;;;6.53;5.90;;;19.50;99.90;;;;;;6074491;23;20431;-67
2022/08/03 05:52:51;;;;;;;7.33;6.80;;;19.50;99.90;;;;;;6071709;23;20827;-67
2022/08/03 05:55:19;;;;;;;6.97;6.47;;;19.60;99.90;;;;;;6076153;23;20989;-66
2022/08/03 05:57:47;;;;;;;6.17;5.70;;;19.70;99.90;;;;;;6074520;23;20442;-67
2022/08/03 06:00:14;;;;;;;7.20;6.60;;;19.80;99.90;;;;;;6074714;23;20986;-67
2022/08/03 06:02:42;;;;;;;6.40;5.90;;;19.80;99.90;;;;;;6073571;23;20981;-66
2022/08/03 06:05:10;;;;;;;6.80;6.30;;;20.00;99.90;;;;;;6070729;23;20530;-67
2022/08/03 06:07:37;;;;;;;7.03;6.20;;;20.10;99.90;;;;;;6071471;23;20440;-67
2022/08/03 06:10:05;;;;;;;6.10;5.60;;;20.20;99.90;;;;;;6065169;23;20443;-72
2022/08/03 17:36:19;;;;;;;1.57;1.47;;;32.90;50.10;;;;;;6086679;23;20633;-70
2022/08/03 17:38:48;;;;;;;1.87;1.60;;;32.60;49.70;;;;;;6054576;23;20469;-70
2022/08/03 17:41:16;;;;;;;2.67;1.80;;;32.50;49.50;;;;;;6052605;23;20520;-76
2022/08/03 17:43:45;;;;;;;3.57;1.67;;;32.50;48.80;;;;;;6054692;23;20478;-71
2022/08/03 17:46:13;;;;;;;1.90;1.80;;;32.50;48.80;;;;;;6048641;23;21234;-70
2022/08/03 17:48:40;;;;;;;1.87;1.77;;;32.50;49.20;;;;;;6051527;23;20446;-71
2022/08/03 17:51:21;;;;;;;1.50;1.40;;;32.50;49.60;;;;;;6048352;23;20432;-70
2022/08/03 17:54:00;;;;;;;1.53;1.43;;;32.50;49.30;;;;;;6046554;22;20524;-71
2022/08/03 17:56:32;;;;;;;1.70;1.60;;;32.50;49.10;;;;;;6057481;23;20509;-70
2022/08/03 17:59:07;;;;;;;1.80;1.70;;;32.50;49.30;;;;;;6046566;23;20530;-71
2022/08/03 18:04:28;;;;;;;1.77;1.53;;;32.40;49.20;;;;;;6033822;23;20566;-71
2022/08/03 18:06:58;;;;;;;1.70;1.60;;;32.30;49.40;;;;;;6028154;23;20452;-71
2022/08/03 18:09:28;;;;;;;1.70;1.60;;;32.20;49.20;;;;;;6032269;23;20930;-70
2022/08/03 18:11:58;;;;;;;1.60;1.50;;;32.20;49.60;;;;;;6034432;23;20432;-70
2022/08/03 18:14:34;;;;;;;2.03;1.50;;;32.10;49.70;;;;;;6028684;23;20461;-70
2022/08/03 18:17:05;;;;;;;1.73;1.63;;;32.00;49.90;;;;;;6024421;23;20518;-70
2022/08/03 18:19:35;;;;;;;1.87;1.77;;;32.00;50.30;;;;;;6034210;23;20446;-71
2022/08/03 18:22:02;;;;;;;1.77;1.67;;;31.90;50.60;;;;;;6032129;23;20435;-70
2022/08/03 18:24:31;;;;;;;1.50;1.40;;;31.90;50.80;;;;;;6040035;23;20441;-70
2022/08/03 18:27:01;;;;;;;1.70;1.60;;;31.80;51.00;;;;;;6028658;23;20471;-70
2022/08/03 18:29:28;;;;;;;2.00;1.90;;;31.70;51.30;;;;;;6025157;23;20452;-71
2022/08/03 18:31:59;;;;;;;1.50;1.40;;;31.70;51.40;;;;;;6025795;23;20435;-70
2022/08/03 18:34:27;;;;;;;2.80;1.80;;;31.60;51.50;;;;;;6026403;23;20460;-70
2022/08/03 18:36:55;;;;;;;2.07;1.83;;;31.50;51.50;;;;;;6029740;23;20432;-70
2022/08/03 18:39:22;;;;;;;1.70;1.60;;;31.50;51.80;;;;;;6033408;23;20466;-70
2022/08/03 18:41:51;;;;;;;1.40;1.30;;;31.40;51.80;;;;;;6040287;23;20515;-80
2022/08/03 18:44:19;;;;;;;2.20;2.00;;;31.40;51.80;;;;;;6028584;23;20475;-66
2022/08/03 18:46:50;;;;;;;1.70;1.60;;;31.30;52.30;;;;;;6029846;23;20448;-66
2022/08/03 18:49:28;;;;;;;1.90;1.80;;;31.20;52.60;;;;;;6023074;23;20449;-65
2022/08/03 18:52:02;;;;;;;2.17;1.80;;;31.10;53.10;;;;;;6026685;23;20468;-67
2022/08/03 18:54:35;;;;;;;2.07;1.57;;;31.10;52.50;;;;;;6027530;23;20942;-67
2022/08/03 18:57:04;;;;;;;2.33;1.90;;;31.00;52.50;;;;;;6025376;23;20432;-67
2022/08/03 18:59:45;;;;;;;2.63;1.73;;;31.00;52.70;;;;;;6032058;23;20435;-67
2022/08/03 19:02:24;;;;;;;2.23;2.00;;;30.90;53.10;;;;;;6030236;23;20534;-67
2022/08/03 19:04:54;;;;;;;1.83;1.73;;;30.80;53.20;;;;;;6023952;23;20437;-67
2022/08/03 19:07:25;;;;;;;1.73;1.63;;;30.80;53.60;;;;;;6043584;23;20475;-68
2022/08/03 19:09:54;;;;;;;1.80;1.70;;;30.70;53.80;;;;;;6036489;23;20435;-67
2022/08/03 19:12:25;;;;;;;2.13;1.93;;;30.70;54.20;;;;;;6024008;23;20459;-67
2022/08/03 19:14:55;;;;;;;3.03;1.97;;;30.60;54.40;;;;;;6027564;23;20467;-67
2022/08/03 19:17:25;;;;;;;1.90;1.80;;;30.60;54.50;;;;;;6041971;23;20844;-67
2022/08/03 19:19:54;;;;;;;2.23;2.00;;;30.50;54.60;;;;;;6046025;23;20443;-68
2022/08/03 19:22:21;;;;;;;2.00;1.90;;;30.50;54.80;;;;;;6040662;23;20847;-68
2022/08/03 19:24:51;;;;;;;2.03;1.93;;;30.40;55.00;;;;;;6036322;23;20486;-67
2022/08/03 19:27:19;;;;;;;2.33;2.10;;;30.40;55.20;;;;;;6030775;23;20461;-69
2022/08/03 19:29:48;;;;;;;2.30;2.10;;;30.30;55.70;;;;;;6033942;23;20439;-67
2022/08/03 19:32:17;;;;;;;2.00;1.90;;;30.30;56.00;;;;;;6038919;23;20464;-67
2022/08/03 19:34:44;;;;;;;1.97;1.87;;;30.20;56.30;;;;;;6020616;23;20459;-67
2022/08/03 19:37:14;;;;;;;2.33;1.97;;;30.20;56.30;;;;;;6037787;23;20518;-67
2022/08/03 19:39:42;;;;;;;2.50;2.30;;;30.10;56.70;;;;;;6023711;23;20436;-67
2022/08/03 19:42:11;;;;;;;2.10;1.90;;;30.10;57.20;;;;;;6038758;23;20447;-67
2022/08/03 19:44:43;;;;;;;2.30;2.20;;;30.00;57.20;;;;;;6042834;23;20511;-67
2022/08/03 19:47:18;;;;;;;2.40;2.20;;;30.00;57.40;;;;;;6040269;23;20479;-67
2022/08/03 19:49:47;;;;;;;2.50;2.30;;;30.00;58.00;;;;;;6031632;23;20489;-67
2022/08/03 19:52:15;;;;;;;2.27;2.00;;;29.90;57.90;;;;;;6036791;23;20488;-67
2022/08/03 19:54:44;;;;;;;2.00;1.90;;;29.80;58.20;;;;;;6036736;23;20441;-68
2022/08/03 19:57:16;;;;;;;2.40;2.20;;;29.80;58.60;;;;;;6028878;23;20971;-67
2022/08/03 19:59:44;;;;;;;2.47;2.07;;;29.70;58.60;;;;;;6049287;23;20982;-66
2022/08/03 20:02:13;;;;;;;2.60;2.40;;;29.70;58.80;;;;;;6017760;23;20448;-68
2022/08/03 20:04:40;;;;;;;3.30;2.40;;;29.60;59.10;;;;;;6037643;23;20442;-68
2022/08/03 20:07:07;;;;;;;2.30;2.10;;;29.60;59.30;;;;;;6033410;23;20448;-66
2022/08/03 20:09:35;;;;;;;2.50;2.40;;;29.50;59.50;;;;;;6033557;23;20451;-67
2022/08/03 20:12:02;;;;;;;2.50;2.30;;;29.40;59.70;;;;;;6032613;23;20464;-67
2022/08/03 20:14:30;;;;;;;2.80;2.60;;;29.40;60.00;;;;;;6038218;23;20450;-67
2022/08/03 20:16:57;;;;;;;2.37;2.27;;;29.30;60.00;;;;;;6029081;23;20476;-67
2022/08/03 20:19:25;;;;;;;2.60;2.40;;;29.20;60.40;;;;;;6023596;23;20459;-67
2022/08/03 20:21:54;;;;;;;2.50;2.30;;;29.10;60.70;;;;;;6031271;23;20721;-67
2022/08/03 20:24:26;;;;;;;3.80;2.73;;;29.00;61.30;;;;;;6029329;23;20512;-67
2022/08/03 20:26:56;;;;;;;2.67;2.47;;;28.90;61.50;;;;;;6025868;23;20440;-67
2022/08/03 20:29:29;;;;;;;2.30;2.10;;;28.90;61.70;;;;;;6023703;23;20432;-67
2022/08/03 20:31:57;;;;;;;2.40;2.20;;;28.80;62.00;;;;;;6025424;23;20522;-67
2022/08/03 20:34:26;;;;;;;2.70;2.40;;;28.70;62.00;;;;;;6037582;23;20447;-67
2022/08/03 20:36:53;;;;;;;2.80;2.50;;;28.70;62.30;;;;;;6029703;23;20536;-67
2022/08/03 20:39:20;;;;;;;2.50;2.30;;;28.60;62.50;;;;;;6036373;23;20500;-67
2022/08/03 20:41:47;;;;;;;2.47;2.27;;;28.60;62.80;;;;;;6028849;23;20488;-67
2022/08/03 20:44:14;;;;;;;2.23;2.13;;;28.50;63.20;;;;;;6033113;23;20850;-66
2022/08/03 20:46:41;;;;;;;3.20;2.30;;;28.40;63.20;;;;;;6037186;23;20440;-67
2022/08/03 20:49:08;;;;;;;2.67;2.47;;;28.30;63.50;;;;;;6039417;23;20825;-67
2022/08/03 20:51:40;;;;;;;2.90;2.70;;;28.20;63.60;;;;;;6043409;23;20987;-67
2022/08/03 20:54:07;;;;;;;2.97;2.70;;;28.20;63.70;;;;;;6028792;23;20452;-67
2022/08/03 20:56:35;;;;;;;3.10;2.60;;;28.10;64.00;;;;;;6037539;23;20472;-66
2022/08/03 20:59:04;;;;;;;2.57;2.37;;;28.10;64.40;;;;;;6035420;23;20460;-66
2022/08/03 21:01:31;;;;;;;5.20;3.13;;;28.00;64.90;;;;;;6044167;23;20438;-67
2022/08/03 21:03:59;;;;;;;3.00;2.70;;;27.90;65.00;;;;;;6048113;23;20447;-67
2022/08/03 21:06:34;;;;;;;3.00;2.80;;;27.90;65.50;;;;;;6017918;23;20486;-68
2022/08/03 21:09:05;;;;;;;4.20;2.83;;;27.80;65.70;;;;;;6042305;23;20481;-69
2022/08/03 21:11:39;;;;;;;3.03;2.83;;;27.80;66.00;;;;;;6041195;23;20440;-69
2022/08/03 21:14:12;;;;;;;2.80;2.60;;;27.70;66.30;;;;;;6030599;23;20483;-68
2022/08/03 21:16:44;;;;;;;2.80;2.60;;;27.70;66.50;;;;;;6040402;23;20838;-67
2022/08/03 21:19:12;;;;;;;3.27;2.80;;;27.60;66.90;;;;;;6045399;23;20480;-68
2022/08/03 21:21:40;;;;;;;3.00;2.80;;;27.60;67.30;;;;;;6027581;23;21058;-67
2022/08/03 21:24:13;;;;;;;3.37;3.07;;;27.50;67.60;;;;;;6037183;23;20501;-68
2022/08/03 21:26:41;;;;;;;4.30;3.00;;;27.40;67.70;;;;;;6029731;23;20470;-68
2022/08/03 21:29:12;;;;;;;3.33;3.03;;;27.40;68.20;;;;;;6033068;23;20451;-67
2022/08/03 21:31:40;;;;;;;4.00;3.20;;;27.30;68.60;;;;;;6023157;23;20480;-67
2022/08/03 21:34:07;;;;;;;3.10;2.80;;;27.30;69.30;;;;;;6038579;23;20542;-67
2022/08/03 21:36:36;;;;;;;3.17;2.67;;;27.20;68.80;;;;;;6036331;23;20598;-67
2022/08/03 21:39:06;;;;;;;3.70;2.60;;;27.10;68.60;;;;;;6038739;23;20441;-67
2022/08/03 21:41:36;;;;;;;2.73;2.50;;;27.10;69.40;;;;;;6038768;23;20501;-67
2022/08/03 21:44:03;;;;;;;3.00;2.70;;;27.00;68.60;;;;;;6041552;23;20439;-67
2022/08/03 21:46:34;;;;;;;2.87;2.67;;;27.00;68.70;;;;;;6049206;23;20529;-67
2022/08/03 21:49:05;;;;;;;3.30;2.37;;;26.90;68.90;;;;;;6041526;23;20790;-67
2022/08/03 21:51:35;;;;;;;2.77;2.57;;;26.90;69.20;;;;;;6042716;23;20449;-67
2022/08/03 21:54:02;;;;;;;2.37;2.17;;;26.80;69.40;;;;;;6029484;23;20873;-67
2022/08/03 21:56:35;;;;;;;2.50;2.30;;;26.80;69.60;;;;;;6030723;23;21012;-67
2022/08/03 21:59:06;;;;;;;2.43;2.23;;;26.70;69.90;;;;;;6052059;23;21069;-67
2022/08/03 22:01:35;;;;;;;2.87;2.50;;;26.60;70.10;;;;;;6048211;23;20957;-68
2022/08/03 22:04:05;;;;;;;2.53;2.33;;;26.60;70.40;;;;;;6031050;23;20451;-67
2022/08/03 22:06:32;;;;;;;2.83;2.63;;;26.50;70.70;;;;;;6040129;23;20454;-68
2022/08/03 22:08:59;;;;;;;2.90;2.60;;;26.50;71.00;;;;;;6041721;23;20869;-67
2022/08/03 22:11:27;;;;;;;2.40;2.30;;;26.40;71.20;;;;;;6042585;23;20483;-67
2022/08/03 22:13:54;;;;;;;2.23;2.03;;;26.40;71.60;;;;;;6038690;23;20478;-68
2022/08/03 22:16:22;;;;;;;2.53;2.33;;;26.30;71.80;;;;;;6023058;23;20879;-68
2022/08/03 22:18:49;;;;;;;2.70;2.50;;;26.20;71.90;;;;;;6028682;23;20444;-68
2022/08/03 22:21:17;;;;;;;2.40;2.23;;;26.20;72.40;;;;;;6043313;23;21004;-67
2022/08/03 22:23:47;;;;;;;2.80;2.60;;;26.10;72.70;;;;;;6037515;23;20450;-68
2022/08/03 22:26:18;;;;;;;2.70;2.50;;;26.10;73.20;;;;;;6048436;23;20981;-68
2022/08/03 22:28:45;;;;;;;3.10;2.80;;;26.00;73.30;;;;;;6043332;23;20443;-68
2022/08/03 22:31:13;;;;;;;2.53;2.33;;;25.90;73.60;;;;;;6050179;23;20434;-67
2022/08/03 22:33:44;;;;;;;2.20;2.00;;;25.90;73.80;;;;;;6042322;23;20450;-68
2022/08/03 22:36:12;;;;;;;2.53;2.33;;;25.80;74.30;;;;;;6040075;23;20484;-68
2022/08/03 22:38:39;;;;;;;4.13;2.63;;;25.70;74.60;;;;;;6041397;23;20451;-68
2022/08/03 22:41:06;;;;;;;2.83;2.30;;;25.70;75.00;;;;;;6031880;23;20557;-67
2022/08/03 22:43:35;;;;;;;3.20;3.00;;;25.70;75.40;;;;;;6034133;23;20465;-67
2022/08/03 22:46:03;;;;;;;2.33;2.13;;;25.60;75.60;;;;;;6032880;23;20463;-67
2022/08/03 22:48:34;;;;;;;2.97;2.43;;;25.50;75.90;;;;;;6051306;23;20445;-68
2022/08/03 22:51:03;;;;;;;2.30;2.20;;;25.50;76.20;;;;;;6041306;23;20472;-68
2022/08/03 22:53:30;;;;;;;2.17;2.07;;;25.40;76.50;;;;;;6033954;23;20501;-68
2022/08/03 22:55:58;;;;;;;2.97;2.67;;;25.30;76.90;;;;;;6032415;23;20498;-67
2022/08/03 22:58:25;;;;;;;3.00;2.70;;;25.30;77.10;;;;;;6031509;23;20469;-67
2022/08/03 23:00:55;;;;;;;2.80;2.60;;;25.20;77.30;;;;;;6043069;23;20516;-67
2022/08/03 23:03:25;;;;;;;2.77;2.57;;;25.10;77.60;;;;;;6039965;23;20473;-67
2022/08/03 23:05:54;;;;;;;2.13;1.93;;;25.10;78.20;;;;;;6039394;23;20464;-67
2022/08/03 23:08:24;;;;;;;4.03;2.60;;;25.00;78.60;;;;;;6041916;23;20451;-67
2022/08/03 23:10:53;;;;;;;2.77;2.47;;;24.90;79.60;;;;;;6045673;23;20486;-67
2022/08/03 23:13:24;;;;;;;4.00;2.73;;;24.80;79.00;;;;;;6023536;23;20847;-67
2022/08/03 23:15:59;;;;;;;3.00;2.80;;;24.80;79.60;;;;;;6042181;23;20489;-67
2022/08/03 23:18:29;;;;;;;2.60;2.40;;;24.70;80.30;;;;;;6040817;23;20524;-67
2022/08/03 23:21:00;;;;;;;3.13;2.83;;;24.70;80.70;;;;;;6045960;23;20795;-67
2022/08/03 23:23:29;;;;;;;4.10;2.53;;;24.60;81.20;;;;;;6029034;23;20496;-67
2022/08/03 23:25:56;;;;;;;2.87;2.53;;;24.60;81.80;;;;;;6036036;23;20498;-67
2022/08/03 23:28:26;;;;;;;2.87;2.63;;;24.50;82.30;;;;;;6030454;23;20493;-67
2022/08/03 23:30:54;;;;;;;2.63;2.43;;;24.50;82.70;;;;;;6038700;23;20478;-67
2022/08/03 23:33:22;;;;;;;2.70;2.50;;;24.40;83.00;;;;;;6036622;23;20465;-68
2022/08/03 23:35:58;;;;;;;2.90;2.60;;;24.40;83.10;;;;;;6049171;23;20518;-67
2022/08/03 23:38:28;;;;;;;2.80;2.60;;;24.40;83.40;;;;;;6030679;23;21004;-67
2022/08/03 23:40:58;;;;;;;2.70;2.50;;;24.30;83.60;;;;;;6040478;23;20439;-67
2022/08/03 23:43:26;;;;;;;4.77;2.63;;;24.30;83.90;;;;;;6030334;23;20468;-67
2022/08/03 23:45:56;;;;;;;4.50;2.40;;;24.30;84.00;;;;;;6045343;23;20490;-67
2022/08/03 23:48:23;;;;;;;3.00;2.47;;;24.20;84.10;;;;;;6029882;23;20574;-67
2022/08/03 23:50:58;;;;;;;2.60;2.40;;;24.20;84.40;;;;;;6056691;23;20478;-67
2022/08/03 23:53:35;;;;;;;3.07;2.30;;;24.20;84.70;;;;;;6029353;23;20475;-67
2022/08/03 23:56:12;;;;;;;3.40;2.70;;;24.30;85.00;;;;;;6032277;23;20455;-67
2022/08/03 23:58:52;;;;;;;2.60;2.40;;;24.10;85.20;;;;;;6042787;23;20540;-67
